createdAt,value
2019-04-23T00:02:16.611Z,2.27
2019-04-23T00:04:35.475Z,2.08
2019-04-23T00:07:32.187Z,1.87
2019-04-23T00:09:46.782Z,2.10
2019-04-23T00:12:23.787Z,2.10
2019-04-23T00:14:55.237Z,2.87
2019-04-23T00:17:26.789Z,1.87
2019-04-23T00:19:47.327Z,1.70
2019-04-23T00:22:26.525Z,2.00
2019-04-23T00:27:35.783Z,1.77
2019-04-23T00:30:03.941Z,2.30
2019-04-23T00:32:37.923Z,1.90
2019-04-23T00:35:05.997Z,2.40
2019-04-23T00:37:35.587Z,2.80
2019-04-23T00:40:03.155Z,2.03
2019-04-23T00:42:41.488Z,1.77
2019-04-23T00:45:07.195Z,2.40
2019-04-23T00:52:38.898Z,2.27
2019-04-23T00:55:14.842Z,2.60
2019-04-23T00:57:40.610Z,2.58
2019-04-23T01:00:24.539Z,2.50
2019-04-23T01:02:47.432Z,2.57
2019-04-23T01:05:18.715Z,3.00
2019-04-23T01:07:45.193Z,2.60
2019-04-23T01:10:25.512Z,3.13
2019-04-23T01:12:51.263Z,2.72
2019-04-23T01:15:26.076Z,3.57
2019-04-23T01:17:57.648Z,3.20
2019-04-23T01:20:21.060Z,2.30
2019-04-23T01:22:35.737Z,3.60
2019-04-23T01:25:13.582Z,3.00
2019-04-23T01:28:04.447Z,3.40
2019-04-23T01:30:38.722Z,2.87
2019-04-23T01:33:05.916Z,3.00
2019-04-23T01:35:36.351Z,3.65
2019-04-23T01:38:06.147Z,3.20
2019-04-23T01:40:36.672Z,3.17
2019-04-23T01:43:07.894Z,3.13
2019-04-23T01:45:32.695Z,3.50
2019-04-23T01:48:04.678Z,3.05
2019-04-23T01:50:50.085Z,3.40
2019-04-23T01:55:46.543Z,2.93
2019-04-23T01:58:32.245Z,3.90
2019-04-23T02:00:47.807Z,3.70
2019-04-23T02:05:48.319Z,3.22
2019-04-23T02:08:32.025Z,3.47
2019-04-23T02:11:01.554Z,3.33
2019-04-23T02:13:24.895Z,3.20
2019-04-23T02:15:47.433Z,3.67
2019-04-23T02:18:20.590Z,2.63
2019-04-23T02:20:55.536Z,3.17
2019-04-23T02:23:31.281Z,3.97
2019-04-23T02:25:55.533Z,3.37
2019-04-23T02:28:32.665Z,3.90
2019-04-23T02:36:07.681Z,3.60
2019-04-23T02:41:12.939Z,4.60
2019-04-23T02:43:26.534Z,4.00
2019-04-23T02:48:43.830Z,3.90
2019-04-23T02:51:10.805Z,3.97
2019-04-23T02:58:42.191Z,3.93
2019-04-23T03:01:25.744Z,4.80
2019-04-23T03:03:51.311Z,4.60
2019-04-23T03:06:27.401Z,4.30
2019-04-23T03:14:00.398Z,4.40
2019-04-23T03:16:49.927Z,4.00
2019-04-23T03:19:08.294Z,4.93
2019-04-23T03:24:28.450Z,4.60
2019-04-23T03:35:16.299Z,5.87
2019-04-23T03:39:17.781Z,4.70
2019-04-23T03:41:54.472Z,4.63
2019-04-23T03:44:30.031Z,4.87
2019-04-23T03:46:57.186Z,4.90
2019-04-23T03:49:19.696Z,5.83
2019-04-23T03:54:33.787Z,5.10
2019-04-23T04:09:34.130Z,6.10
2019-04-23T04:11:55.118Z,6.20
2019-04-23T04:14:44.826Z,5.40
2019-04-23T04:17:03.660Z,6.93
2019-04-23T04:24:36.813Z,6.80
2019-04-23T04:29:44.410Z,6.80
2019-04-23T04:32:02.638Z,6.80
2019-04-23T04:42:09.528Z,6.53
2019-04-23T04:49:50.900Z,8.25
2019-04-23T04:54:24.204Z,7.67
2019-04-23T04:57:27.871Z,7.20
2019-04-23T04:59:51.236Z,8.07
2019-04-23T05:02:20.506Z,8.33
2019-04-23T05:04:52.533Z,8.07
2019-04-23T05:09:48.444Z,6.10
2019-04-23T05:14:52.592Z,9.10
2019-04-23T05:17:16.834Z,10.83
2019-04-23T05:19:45.861Z,9.48
2019-04-23T05:22:16.590Z,8.67
2019-04-23T05:24:39.864Z,8.33
2019-04-23T05:27:10.236Z,7.40
2019-04-23T05:29:46.612Z,9.13
2019-04-23T05:32:14.898Z,9.23
2019-04-23T05:34:40.229Z,9.65
2019-04-23T05:37:11.566Z,9.50
2019-04-23T05:39:49.904Z,9.20
2019-04-23T05:42:19.918Z,8.07
2019-04-23T05:44:50.295Z,9.73
2019-04-23T05:47:20.367Z,8.60
2019-04-23T05:49:57.020Z,10.43
2019-04-23T05:52:27.894Z,8.57
2019-04-23T05:57:14.346Z,9.10
2019-04-23T05:59:49.914Z,6.87
2019-04-23T06:02:20.369Z,10.47
2019-04-23T06:04:49.622Z,10.30
2019-04-23T06:10:02.876Z,10.03
2019-04-23T06:12:26.597Z,9.20
2019-04-23T06:14:57.657Z,9.60
2019-04-23T06:17:25.425Z,9.20
2019-04-23T06:20:07.853Z,8.90
2019-04-23T06:25:00.965Z,9.10
2019-04-23T06:29:58.880Z,10.70
2019-04-23T06:32:34.310Z,8.20
2019-04-23T06:34:56.836Z,8.73
2019-04-23T06:40:01.503Z,9.37
2019-04-23T06:42:29.278Z,8.83
2019-04-23T06:44:59.878Z,8.33
2019-04-23T06:52:31.549Z,9.50
2019-04-23T06:55:09.328Z,8.60
2019-04-23T06:57:58.792Z,7.70
2019-04-23T07:00:07.916Z,9.10
2019-04-23T07:02:39.145Z,7.97
2019-04-23T07:05:15.978Z,7.30
2019-04-23T07:10:11.515Z,6.37
2019-04-23T07:12:44.848Z,8.30
2019-04-23T07:15:16.384Z,8.00
2019-04-23T07:17:44.827Z,7.57
2019-04-23T07:20:15.223Z,7.77
2019-04-23T07:22:43.210Z,8.43
2019-04-23T07:25:14.122Z,5.80
2019-04-23T07:27:45.780Z,6.77
2019-04-23T07:35:14.202Z,7.17
2019-04-23T07:37:48.819Z,5.73
2019-04-23T07:42:58.254Z,8.48
2019-04-23T07:48:16.598Z,7.63
2019-04-23T07:53:23.384Z,6.90
2019-04-23T08:00:58.224Z,6.70
2019-04-23T08:03:31.229Z,6.40
2019-04-23T08:05:55.478Z,7.30
2019-04-23T08:08:30.421Z,6.78
2019-04-23T08:13:47.692Z,6.20
2019-04-23T08:16:32.889Z,6.60
2019-04-23T08:24:02.233Z,5.17
2019-04-23T08:26:50.817Z,7.23
2019-04-23T08:32:10.746Z,7.13
2019-04-23T08:34:36.908Z,7.23
2019-04-23T08:39:38.359Z,7.97
2019-04-23T08:44:47.082Z,10.50
2019-04-23T08:49:48.800Z,7.30
2019-04-23T08:52:25.582Z,10.37
2019-04-23T08:57:14.544Z,17.77
2019-04-23T08:59:47.586Z,9.80
2019-04-23T09:02:31.239Z,7.23
2019-04-23T09:05:06.341Z,7.65
2019-04-23T09:09:50.969Z,6.87
2019-04-23T09:12:27.006Z,6.80
2019-04-23T09:14:51.214Z,6.17
2019-04-23T09:17:20.798Z,8.00
2019-04-23T09:20:07.061Z,9.63
2019-04-23T09:25:00.456Z,9.27
2019-04-23T09:30:07.656Z,8.10
2019-04-23T09:32:36.915Z,10.07
2019-04-23T09:35:06.012Z,9.10
2019-04-23T09:37:49.186Z,13.15
2019-04-23T09:40:28.549Z,9.10
2019-04-23T09:42:54.370Z,7.80
2019-04-23T09:45:26.965Z,7.27
2019-04-23T09:50:38.402Z,6.50
2019-04-23T09:53:13.101Z,9.40
2019-04-23T10:00:59.105Z,6.07
2019-04-23T10:03:13.607Z,6.77
2019-04-23T10:05:33.658Z,6.90
2019-04-23T10:08:03.077Z,6.10
2019-04-23T10:10:24.226Z,5.90
2019-04-23T10:13:02.222Z,4.57
2019-04-23T10:15:45.727Z,7.10
2019-04-23T10:18:22.425Z,7.53
2019-04-23T10:20:52.309Z,5.53
2019-04-23T10:23:23.091Z,5.67
2019-04-23T10:25:52.338Z,5.43
2019-04-23T10:28:26.547Z,6.00
2019-04-23T10:30:56.586Z,6.97
2019-04-23T10:33:25.569Z,7.00
2019-04-23T10:36:02.184Z,5.40
2019-04-23T10:38:26.695Z,6.13
2019-04-23T10:40:56.210Z,6.97
2019-04-23T10:43:25.158Z,7.23
2019-04-23T10:46:21.827Z,6.67
2019-04-23T10:49:13.673Z,6.67
2019-04-23T10:54:32.915Z,5.27
2019-04-23T10:56:48.831Z,8.00
2019-04-23T10:59:38.891Z,5.87
2019-04-23T11:07:25.407Z,6.80
2019-04-23T11:12:37.131Z,7.00
2019-04-23T11:17:46.002Z,6.15
2019-04-23T11:20:25.822Z,6.23
2019-04-23T11:22:45.402Z,5.33
2019-04-23T11:30:27.499Z,6.30
2019-04-23T11:35:31.078Z,4.67
2019-04-23T11:38:09.120Z,7.40
2019-04-23T11:40:21.206Z,7.10
2019-04-23T11:50:31.740Z,6.97
2019-04-23T11:52:56.463Z,5.23
2019-04-23T11:55:32.856Z,7.03
2019-04-23T12:00:33.607Z,7.20
2019-04-23T12:02:59.160Z,6.83
2019-04-23T12:05:58.213Z,6.67
2019-04-23T12:08:37.784Z,6.17
2019-04-23T12:14:02.542Z,6.80
2019-04-23T12:16:30.239Z,5.10
2019-04-23T12:19:25.471Z,7.33
2019-04-23T12:21:43.842Z,5.37
2019-04-23T12:24:04.570Z,5.73
2019-04-23T12:26:38.941Z,6.47
2019-04-23T12:29:04.040Z,6.13
2019-04-23T12:31:34.906Z,7.13
2019-04-23T12:36:37.268Z,6.13
2019-04-23T12:39:08.794Z,7.23
2019-04-23T12:41:36.068Z,6.47
2019-04-23T12:44:22.359Z,7.47
2019-04-23T12:46:38.171Z,6.20
2019-04-23T12:49:28.371Z,5.37
2019-04-23T12:51:41.540Z,4.50
2019-04-23T12:54:06.433Z,6.20
2019-04-23T12:56:53.696Z,5.67
2019-04-23T12:59:12.451Z,5.67
2019-04-23T13:01:42.504Z,6.55
2019-04-23T13:04:11.618Z,6.17
2019-04-23T13:06:39.157Z,6.30
2019-04-23T13:09:21.757Z,7.03
2019-04-23T13:11:43.588Z,6.47
2019-04-23T13:14:17.388Z,5.33
2019-04-23T13:16:53.873Z,6.13
2019-04-23T13:19:26.030Z,6.53
2019-04-23T13:22:00.332Z,6.40
2019-04-23T13:24:28.845Z,6.63
2019-04-23T13:27:02.501Z,6.43
2019-04-23T13:29:37.921Z,7.20
2019-04-23T13:31:58.985Z,6.40
2019-04-23T13:34:42.866Z,6.37
2019-04-23T13:37:05.230Z,6.20
2019-04-23T13:39:33.248Z,6.77
2019-04-23T13:42:05.159Z,5.67
2019-04-23T13:44:42.031Z,6.87
2019-04-23T13:47:10.621Z,6.50
2019-04-23T13:49:43.178Z,6.30
2019-04-23T13:52:26.845Z,7.60
2019-04-23T14:02:17.308Z,5.10
2019-04-23T14:04:45.245Z,6.43
2019-04-23T14:07:14.898Z,6.10
2019-04-23T14:10:04.485Z,6.23
2019-04-23T14:12:18.201Z,7.40
2019-04-23T14:19:55.963Z,6.83
2019-04-23T14:22:43.483Z,6.90
2019-04-23T14:25:04.873Z,6.40
2019-04-23T14:32:46.891Z,6.90
2019-04-23T14:35:04.594Z,5.35
2019-04-23T14:37:21.723Z,6.40
2019-04-23T14:40:05.769Z,6.50
2019-04-23T14:42:47.944Z,6.03
2019-04-23T14:45:22.554Z,5.93
2019-04-23T14:50:27.907Z,6.57
2019-04-23T14:52:57.029Z,5.10
2019-04-23T14:58:00.506Z,7.17
2019-04-23T15:08:02.090Z,5.37
2019-04-23T15:10:34.267Z,7.27
2019-04-23T15:13:00.022Z,7.17
2019-04-23T15:15:35.745Z,6.60
2019-04-23T15:18:09.308Z,6.50
2019-04-23T15:20:33.129Z,7.00
2019-04-23T15:23:25.458Z,6.77
2019-04-23T15:30:38.776Z,6.30
2019-04-23T15:33:23.688Z,6.70
2019-04-23T15:40:41.810Z,6.00
2019-04-23T15:45:44.855Z,6.28
2019-04-23T15:48:19.206Z,6.80
2019-04-23T15:50:43.322Z,5.30
2019-04-23T15:53:04.782Z,5.73
2019-04-23T15:58:29.981Z,6.53
2019-04-23T16:00:48.226Z,6.60
2019-04-23T16:02:51.482Z,5.27
2019-04-23T16:05:21.681Z,5.73
2019-04-23T16:08:11.469Z,7.07
2019-04-23T16:10:54.538Z,4.37
2019-04-23T16:13:18.385Z,5.20
2019-04-23T16:15:54.333Z,6.80
2019-04-23T16:18:35.229Z,7.10
2019-04-23T16:21:04.849Z,6.60
2019-04-23T16:23:31.623Z,5.77
2019-04-23T16:25:58.521Z,6.93
2019-04-23T16:28:50.432Z,4.60
2019-04-23T16:31:07.582Z,6.00
2019-04-23T16:33:31.987Z,7.07
2019-04-23T16:38:38.285Z,6.50
2019-04-23T16:41:09.907Z,7.10
2019-04-23T16:43:35.401Z,5.40
2019-04-23T16:48:47.840Z,6.23
2019-04-23T16:51:17.983Z,6.80
2019-04-23T16:53:56.348Z,6.25
2019-04-23T17:01:22.904Z,6.40
2019-04-23T17:06:24.746Z,5.50
2019-04-23T17:09:15.698Z,7.00
2019-04-23T17:11:42.572Z,6.90
2019-04-23T17:14:13.552Z,6.83
2019-04-23T17:16:41.964Z,5.43
2019-04-23T17:21:53.317Z,6.10
2019-04-23T17:27:08.220Z,5.40
2019-04-23T17:32:16.586Z,7.10
2019-04-23T17:35:11.629Z,6.20
2019-04-23T17:37:37.355Z,5.67
2019-04-23T17:40:34.217Z,7.07
2019-04-23T17:43:06.240Z,6.20
2019-04-23T17:45:38.527Z,6.70
2019-04-23T17:48:17.717Z,7.50
2019-04-23T17:51:00.568Z,7.78
2019-04-23T17:53:25.288Z,7.75
2019-04-23T17:56:26.348Z,6.70
2019-04-23T18:01:22.216Z,6.87
2019-04-23T18:03:57.485Z,5.90
2019-04-23T18:06:32.155Z,7.37
2019-04-23T18:09:08.404Z,6.35
2019-04-23T18:11:50.111Z,6.50
2019-04-23T18:14:08.305Z,7.33
2019-04-23T18:19:12.367Z,7.60
2019-04-23T18:24:23.069Z,7.50
2019-04-23T18:26:51.618Z,8.38
2019-04-23T18:29:36.440Z,7.12
2019-04-23T18:32:16.996Z,7.03
2019-04-23T18:34:59.698Z,6.72
2019-04-23T18:37:19.302Z,7.50
2019-04-23T18:39:47.096Z,6.90
2019-04-23T18:42:22.370Z,8.10
2019-04-23T18:44:48.486Z,8.08
2019-04-23T18:52:29.573Z,8.07
2019-04-23T18:54:48.961Z,8.23
2019-04-23T18:57:27.843Z,7.50
2019-04-23T18:59:55.104Z,7.85
2019-04-23T19:02:24.080Z,8.60
2019-04-23T19:05:17.956Z,7.47
2019-04-23T19:10:36.173Z,8.17
2019-04-23T19:13:07.055Z,7.93
2019-04-23T19:15:38.114Z,8.40
2019-04-23T19:18:06.221Z,8.67
2019-04-23T19:25:38.646Z,7.83
2019-04-23T19:28:30.747Z,8.38
2019-04-23T19:31:05.340Z,9.05
2019-04-23T19:33:35.254Z,9.10
2019-04-23T19:38:33.354Z,8.77
2019-04-23T19:43:49.495Z,9.53
2019-04-23T19:48:42.350Z,9.68
2019-04-23T19:58:46.766Z,10.80
2019-04-23T20:06:32.813Z,9.43
2019-04-23T20:11:09.586Z,10.00
2019-04-23T20:16:15.779Z,9.80
2019-04-23T20:21:03.758Z,10.80
2019-04-23T20:29:02.507Z,10.03
2019-04-23T20:33:20.928Z,10.37
2019-04-23T20:34:11.486Z,9.50
2019-04-23T20:39:17.269Z,10.60
2019-04-23T20:47:06.365Z,10.08
2019-04-23T20:49:38.815Z,9.90
2019-04-23T20:57:30.570Z,9.73
2019-04-23T20:59:58.201Z,9.63
2019-04-23T21:03:08.257Z,10.33
2019-04-23T21:07:54.440Z,9.55
2019-04-23T21:10:27.761Z,10.43
2019-04-23T21:13:02.720Z,9.93
2019-04-23T21:15:18.351Z,10.13
2019-04-23T21:22:57.126Z,11.63
2019-04-23T21:25:14.816Z,13.47
2019-04-23T21:27:44.909Z,10.70
2019-04-23T21:30:58.537Z,11.03
2019-04-23T21:33:11.851Z,11.88
2019-04-23T21:49:16.522Z,11.80
2019-04-23T21:53:58.680Z,12.57
2019-04-23T21:59:17.599Z,12.43
2019-04-23T22:01:44.976Z,12.30
2019-04-23T22:04:25.024Z,12.90
2019-04-23T22:11:56.994Z,11.70
2019-04-23T22:14:22.088Z,12.60
2019-04-23T22:19:26.707Z,11.83
2019-04-23T22:21:54.436Z,12.03
2019-04-23T22:24:12.309Z,12.83
2019-04-23T22:34:22.255Z,12.47
2019-04-23T22:37:12.734Z,12.93
2019-04-23T22:39:39.882Z,12.73
2019-04-23T22:42:01.450Z,13.67
2019-04-23T22:44:37.315Z,12.00
2019-04-23T22:54:32.489Z,14.03
2019-04-23T22:59:48.706Z,12.73
2019-04-23T23:02:29.005Z,13.75
2019-04-23T23:04:59.794Z,13.10
2019-04-23T23:07:22.365Z,13.07
2019-04-23T23:09:56.448Z,15.03
2019-04-23T23:12:21.341Z,13.30
2019-04-23T23:14:54.760Z,13.18
2019-04-23T23:17:20.623Z,14.90
2019-04-23T23:20:03.702Z,14.43
2019-04-23T23:22:20.109Z,13.53
2019-04-23T23:24:57.913Z,13.83
2019-04-23T23:27:25.151Z,15.50
2019-04-23T23:32:31.417Z,13.18
2019-04-23T23:35:08.219Z,13.13
2019-04-23T23:37:36.817Z,13.60
2019-04-23T23:40:15.333Z,14.37
2019-04-23T23:42:42.477Z,16.23
2019-04-23T23:45:21.623Z,14.50
2019-04-23T23:47:39.451Z,15.30
2019-04-23T23:52:51.664Z,14.27
2019-04-23T23:57:41.546Z,14.47
